createdAt,value
2018-09-24T00:01:54.116Z,6.10
2018-09-24T00:06:57.350Z,6.17
2018-09-24T00:12:00.561Z,5.87
2018-09-24T00:17:03.879Z,5.67
2018-09-24T00:22:07.112Z,5.83
2018-09-24T00:27:10.317Z,4.67
2018-09-24T00:32:13.506Z,5.20
2018-09-24T00:37:16.706Z,4.47
2018-09-24T00:42:19.877Z,4.30
2018-09-24T00:47:23.079Z,4.13
2018-09-24T00:52:26.241Z,4.30
2018-09-24T00:57:29.403Z,4.27
2018-09-24T01:02:32.682Z,3.97
2018-09-24T01:07:35.881Z,3.57
2018-09-24T01:12:39.065Z,4.00
2018-09-24T01:17:42.234Z,3.33
2018-09-24T01:22:45.431Z,3.90
2018-09-24T01:27:48.619Z,3.97
2018-09-24T01:32:51.818Z,3.73
2018-09-24T01:37:55.402Z,3.83
2018-09-24T01:42:58.665Z,4.13
2018-09-24T01:48:01.877Z,3.70
2018-09-24T01:53:07.285Z,3.53
2018-09-24T01:58:10.498Z,4.33
2018-09-24T02:03:13.694Z,4.17
2018-09-24T02:08:16.903Z,3.87
2018-09-24T02:13:20.090Z,4.40
2018-09-24T02:18:23.293Z,3.63
2018-09-24T02:23:26.501Z,3.57
2018-09-24T02:28:29.737Z,3.97
2018-09-24T02:33:32.913Z,4.43
2018-09-24T02:38:37.378Z,4.40
2018-09-24T02:43:40.564Z,4.80
2018-09-24T02:48:43.736Z,5.00
2018-09-24T02:53:46.924Z,5.23
2018-09-24T02:58:50.094Z,6.20
2018-09-24T03:03:53.330Z,5.70
2018-09-24T03:08:56.523Z,5.97
2018-09-24T03:13:59.709Z,6.40
2018-09-24T03:19:02.906Z,5.93
2018-09-24T03:24:06.090Z,5.97
2018-09-24T03:29:10.285Z,6.00
2018-09-24T03:34:15.041Z,5.73
2018-09-24T03:39:18.478Z,6.00
2018-09-24T03:44:21.665Z,6.03
2018-09-24T03:49:24.853Z,6.23
2018-09-24T03:54:28.265Z,6.90
2018-09-24T03:59:31.453Z,6.80
2018-09-24T04:04:40.138Z,6.73
2018-09-24T04:09:55.069Z,5.47
2018-09-24T04:15:03.726Z,6.90
2018-09-24T04:20:12.335Z,7.17
2018-09-24T04:25:20.790Z,7.50
2018-09-24T04:30:29.322Z,7.07
2018-09-24T04:35:37.870Z,7.03
2018-09-24T04:40:46.390Z,5.80
2018-09-24T04:45:55.054Z,6.37
2018-09-24T04:51:03.645Z,6.77
2018-09-24T04:56:12.336Z,6.03
2018-09-24T05:01:20.922Z,5.67
2018-09-24T05:06:29.485Z,6.47
2018-09-24T05:11:38.282Z,5.07
2018-09-24T05:16:47.050Z,5.27
2018-09-24T05:21:55.696Z,5.93
2018-09-24T05:27:17.162Z,5.10
2018-09-24T05:32:25.900Z,4.83
2018-09-24T05:43:02.143Z,4.83
2018-09-24T05:48:10.794Z,4.73
2018-09-24T05:53:19.330Z,5.60
2018-09-24T05:58:29.154Z,4.87
2018-09-24T06:03:37.880Z,5.03
2018-09-24T06:08:46.560Z,4.40
2018-09-24T06:13:55.167Z,3.70
2018-09-24T06:19:04.995Z,3.87
2018-09-24T06:24:15.990Z,4.30
2018-09-24T06:29:25.721Z,4.80
2018-09-24T06:34:38.070Z,4.30
2018-09-24T06:39:46.678Z,3.83
2018-09-24T06:44:55.187Z,4.07
2018-09-24T06:50:09.722Z,4.67
2018-09-24T06:55:18.236Z,4.30
2018-09-24T07:00:26.921Z,3.80
2018-09-24T07:05:40.160Z,4.33
2018-09-24T07:10:48.753Z,3.97
2018-09-24T07:15:57.403Z,4.60
2018-09-24T07:21:05.841Z,4.03
2018-09-24T07:26:14.323Z,4.00
2018-09-24T07:31:22.947Z,3.93
2018-09-24T07:36:31.532Z,4.23
2018-09-24T07:41:40.053Z,3.60
2018-09-24T07:46:48.646Z,3.97
2018-09-24T07:51:57.314Z,3.77
2018-09-24T07:57:05.986Z,3.63
2018-09-24T08:02:14.491Z,3.80
2018-09-24T08:07:23.109Z,3.00
2018-09-24T08:12:32.573Z,3.13
2018-09-24T08:17:41.050Z,2.87
2018-09-24T08:22:49.614Z,2.33
2018-09-24T08:27:58.256Z,2.33
2018-09-24T08:33:06.890Z,2.27
2018-09-24T08:38:15.476Z,1.57
2018-09-24T08:43:24.136Z,2.30
2018-09-24T08:48:32.715Z,2.47
2018-09-24T08:53:41.364Z,1.87
2018-09-24T08:58:49.934Z,1.93
2018-09-24T09:03:58.338Z,2.07
2018-09-24T09:09:06.878Z,1.70
2018-09-24T09:14:15.551Z,1.57
2018-09-24T09:19:24.162Z,1.20
2018-09-24T09:24:32.862Z,1.67
2018-09-24T09:29:41.382Z,1.40
2018-09-24T09:34:50.106Z,0.83
2018-09-24T09:39:58.626Z,0.90
2018-09-24T09:45:14.406Z,1.07
2018-09-24T09:50:23.002Z,0.83
2018-09-24T10:00:59.429Z,0.70
2018-09-24T10:06:08.058Z,0.40
2018-09-24T10:11:20.271Z,0.50
2018-09-24T10:16:29.017Z,0.60
2018-09-24T10:21:37.681Z,0.93
2018-09-24T10:26:46.499Z,0.53
2018-09-24T10:31:56.251Z,0.50
2018-09-24T10:37:04.849Z,0.50
2018-09-24T10:42:13.443Z,0.57
2018-09-24T10:47:22.110Z,0.70
2018-09-24T10:52:31.857Z,0.30
2018-09-24T10:57:40.512Z,0.40
2018-09-24T11:02:51.137Z,0.40
2018-09-24T11:07:59.652Z,0.90
2018-09-24T11:13:08.401Z,0.53
2018-09-24T11:18:16.978Z,0.63
2018-09-24T11:23:25.571Z,0.53
2018-09-24T11:28:34.104Z,0.70
2018-09-24T11:33:42.794Z,0.40
2018-09-24T11:38:51.354Z,0.47
2018-09-24T11:44:00.042Z,0.40
2018-09-24T11:49:08.651Z,1.03
2018-09-24T11:54:17.322Z,0.60
2018-09-24T11:59:32.696Z,0.43
2018-09-24T12:04:44.970Z,0.63
2018-09-24T12:09:57.219Z,0.60
2018-09-24T12:15:05.892Z,0.50
2018-09-24T12:20:14.438Z,0.37
2018-09-24T12:25:27.122Z,0.20
2018-09-24T12:30:38.067Z,0.20
2018-09-24T12:35:50.516Z,0.47
2018-09-24T12:40:59.163Z,0.27
2018-09-24T12:46:08.034Z,0.30
2018-09-24T12:51:16.575Z,0.20
2018-09-24T12:56:25.294Z,0.60
2018-09-24T13:01:33.818Z,0.40
2018-09-24T13:06:48.161Z,0.20
2018-09-24T13:11:56.705Z,0.30
2018-09-24T13:17:05.357Z,0.30
2018-09-24T13:22:16.181Z,0.40
2018-09-24T13:27:26.631Z,0.47
2018-09-24T13:32:36.478Z,0.40
2018-09-24T13:37:47.316Z,0.60
2018-09-24T13:42:57.903Z,0.80
2018-09-24T13:48:10.262Z,0.50
2018-09-24T13:53:18.781Z,0.40
2018-09-24T13:58:33.281Z,0.70
2018-09-24T14:03:42.806Z,0.30
2018-09-24T14:08:52.176Z,0.40
2018-09-24T14:14:01.751Z,0.47
2018-09-24T14:19:10.406Z,0.33
2018-09-24T14:24:20.190Z,0.67
2018-09-24T14:29:28.788Z,0.70
2018-09-24T14:34:37.561Z,0.50
2018-09-24T14:39:47.283Z,0.47
2018-09-24T14:44:57.385Z,1.00
2018-09-24T14:50:07.092Z,1.53
2018-09-24T14:55:21.890Z,0.43
2018-09-24T15:00:30.631Z,0.53
2018-09-24T15:05:42.841Z,0.80
2018-09-24T15:10:51.423Z,0.67
2018-09-24T15:16:02.016Z,1.00
2018-09-24T15:21:11.355Z,0.90
2018-09-24T15:26:20.993Z,0.67
2018-09-24T15:31:35.286Z,0.87
2018-09-24T15:36:46.120Z,0.80
2018-09-24T15:41:59.374Z,0.87
2018-09-24T15:47:09.598Z,0.60
2018-09-24T15:52:19.275Z,0.73
2018-09-24T15:57:27.941Z,1.37
2018-09-24T16:02:36.677Z,0.60
2018-09-24T16:07:45.398Z,0.90
2018-09-24T16:12:53.991Z,0.83
2018-09-24T16:18:06.756Z,0.57
2018-09-24T16:23:20.570Z,0.40
2018-09-24T16:28:29.156Z,0.80
2018-09-24T16:33:37.790Z,0.80
2018-09-24T16:38:47.399Z,1.30
2018-09-24T16:43:56.151Z,0.87
2018-09-24T16:49:04.665Z,0.63
2018-09-24T16:54:13.474Z,0.67
2018-09-24T16:59:22.237Z,0.43
2018-09-24T17:04:37.777Z,0.23
2018-09-24T17:09:46.226Z,0.40
2018-09-24T17:14:54.689Z,0.90
2018-09-24T17:20:04.384Z,0.70
2018-09-24T17:25:13.119Z,1.70
2018-09-24T17:30:21.669Z,1.27
2018-09-24T17:35:30.476Z,1.13
2018-09-24T17:40:40.206Z,1.03
2018-09-24T17:45:48.776Z,0.90
2018-09-24T17:50:57.347Z,0.73
2018-09-24T17:56:05.908Z,1.23
2018-09-24T18:01:14.414Z,2.10
2018-09-24T18:06:23.070Z,1.10
2018-09-24T18:11:31.584Z,1.60
2018-09-24T18:16:40.265Z,1.47
2018-09-24T18:21:48.814Z,1.40
2018-09-24T18:26:57.378Z,1.00
2018-09-24T18:32:06.921Z,1.20
2018-09-24T18:37:15.648Z,2.07
2018-09-24T18:42:24.083Z,1.63
2018-09-24T18:47:32.493Z,1.70
2018-09-24T18:52:41.058Z,1.63
2018-09-24T18:57:49.965Z,1.57
2018-09-24T19:02:58.650Z,2.53
2018-09-24T19:08:08.363Z,2.20
2018-09-24T19:13:17.055Z,1.77
2018-09-24T19:18:29.336Z,1.77
2018-09-24T19:23:38.002Z,1.37
2018-09-24T19:28:47.698Z,1.30
2018-09-24T19:33:56.422Z,1.10
2018-09-24T19:39:08.815Z,1.13
2018-09-24T19:44:17.346Z,1.30
2018-09-24T19:49:26.116Z,0.90
2018-09-24T19:54:34.654Z,1.27
2018-09-24T19:59:43.666Z,1.47
2018-09-24T20:04:52.274Z,1.00
2018-09-24T20:10:02.036Z,0.70
2018-09-24T20:15:10.971Z,0.90
2018-09-24T20:20:19.655Z,1.50
2018-09-24T20:25:28.190Z,1.20
2018-09-24T20:30:36.904Z,1.10
2018-09-24T20:35:50.750Z,0.97
2018-09-24T20:40:59.435Z,1.40
2018-09-24T20:46:09.143Z,2.50
2018-09-24T20:51:17.639Z,1.97
2018-09-24T20:56:27.166Z,1.53
2018-09-24T21:01:37.715Z,1.60
2018-09-24T21:06:46.244Z,1.30
2018-09-24T21:11:54.901Z,1.17
2018-09-24T21:17:03.527Z,1.10
2018-09-24T21:22:18.339Z,1.03
2018-09-24T21:27:27.033Z,1.50
2018-09-24T21:32:35.445Z,1.63
2018-09-24T21:37:44.042Z,1.00
2018-09-24T21:42:52.746Z,1.23
2018-09-24T21:48:01.241Z,0.97
2018-09-24T21:53:11.937Z,1.80
2018-09-24T21:58:20.522Z,1.20
2018-09-24T22:03:29.106Z,1.50
2018-09-24T22:08:37.810Z,1.23
2018-09-24T22:13:46.490Z,1.20
2018-09-24T22:18:55.038Z,1.47
2018-09-24T22:24:03.662Z,1.57
2018-09-24T22:29:12.165Z,1.67
2018-09-24T22:34:20.765Z,1.53
2018-09-24T22:39:29.314Z,2.37
2018-09-24T22:44:38.015Z,1.70
2018-09-24T22:49:46.590Z,2.37
2018-09-24T22:54:55.182Z,2.17
2018-09-24T23:00:03.722Z,2.00
2018-09-24T23:05:12.414Z,1.63
2018-09-24T23:10:20.894Z,2.23
2018-09-24T23:15:29.506Z,1.77
2018-09-24T23:20:38.038Z,2.30
2018-09-24T23:25:46.705Z,2.67
2018-09-24T23:30:55.291Z,2.20
2018-09-24T23:36:03.885Z,2.63
2018-09-24T23:41:12.594Z,3.10
2018-09-24T23:46:21.201Z,2.87
2018-09-24T23:51:29.773Z,2.93
2018-09-24T23:56:38.370Z,3.37
